Miami, Indiana
Current Conditions -  °F | °C
As of 4:58 PM on Tuesday 21 Oct 2014 (Local Time) from KGUS Reporting Station
Overcast Overcast  
Wind Chill: 53°   Ceiling: 3100
Heat Index: 53°   Visibility: 10mi
Dew Point: 45°   Wind: 8mph
Humidity: 73%   Direction: 350°N
Pressure: 30.11"   Gusts: NA
Location:  40.61°N, 86.11°W
Report Text: KGUS 212058Z AUTO 35007KT 10SM BKN031 BKN044 OVC050 12/07 A3011 RMK AO2 SLP201 T01190072 53006
Loading
Personal Weather Stations






























Interactive Weather Map
Tropical Storm Tracking
New forecast layout! Learn more

10-Day Weather Forecast

Advertisements
Track Severe Weather on mobile